Time;durP1;ratioP1;P1;durP2;ratioP2;P2;SDS_P1;SDS_P2;PMS_P1;PMS_P2;Temp;Humidity;BMP_temperature;BMP_pressure;BME280_temperature;BME280_humidity;BME280_pressure;Samples;Min_cycle;Max_cycle;Signal;HPM_P1;HPM_P2
2022/07/16 00:01:22;;;;;;;3.67;1.50;;;17.10;99.90;;;;;;5003674;28;20022;-78
2022/07/16 00:03:59;;;;;;;3.95;1.30;;;17.00;99.90;;;;;;5004369;28;20053;-77
2022/07/16 00:06:27;;;;;;;3.30;1.38;;;17.00;99.90;;;;;;5001355;28;20030;-77
2022/07/16 00:08:53;;;;;;;2.78;1.17;;;17.00;99.90;;;;;;5010804;28;20032;-79
2022/07/16 00:11:20;;;;;;;2.70;1.33;;;17.00;99.90;;;;;;5001875;28;20098;-79
2022/07/16 00:13:47;;;;;;;2.53;1.40;;;17.00;99.90;;;;;;5003163;28;20113;-77
2022/07/16 00:16:13;;;;;;;4.82;1.30;;;17.00;99.90;;;;;;4987021;28;20054;-77
2022/07/16 00:21:24;;;;;;;3.95;1.60;;;16.90;99.90;;;;;;5007586;28;20026;-77
2022/07/16 00:23:50;;;;;;;5.30;1.58;;;16.90;99.90;;;;;;5003510;28;20030;-77
2022/07/16 00:26:16;;;;;;;4.05;1.60;;;16.90;99.90;;;;;;5000543;28;20064;-77
2022/07/16 00:28:42;;;;;;;3.00;1.85;;;16.80;99.90;;;;;;4986629;28;20594;-77
2022/07/16 00:31:08;;;;;;;4.22;1.65;;;16.80;99.90;;;;;;5001889;28;20113;-77
2022/07/16 00:33:33;;;;;;;5.18;2.05;;;16.70;99.90;;;;;;5003861;28;20059;-76
2022/07/16 00:35:59;;;;;;;4.40;1.85;;;16.70;99.90;;;;;;4985548;28;20117;-77
2022/07/16 00:38:25;;;;;;;3.45;2.00;;;16.60;99.90;;;;;;5003604;28;20057;-77
2022/07/16 00:40:51;;;;;;;3.78;2.00;;;16.60;99.90;;;;;;4985675;28;20041;-77
2022/07/16 00:43:16;;;;;;;4.70;2.00;;;16.60;99.90;;;;;;5002056;28;20098;-81
2022/07/16 00:45:42;;;;;;;5.95;2.25;;;16.60;99.90;;;;;;5001487;28;20035;-79
2022/07/16 00:48:09;;;;;;;4.55;2.20;;;16.50;99.90;;;;;;5003610;28;20022;-77
2022/07/16 00:50:36;;;;;;;5.05;2.00;;;16.50;99.90;;;;;;5003090;28;20585;-78
2022/07/16 00:53:03;;;;;;;3.28;2.20;;;16.40;99.90;;;;;;4984534;28;20050;-76
2022/07/16 00:55:30;;;;;;;4.05;2.00;;;16.40;99.90;;;;;;5000920;28;20027;-77
2022/07/16 00:57:56;;;;;;;5.72;2.10;;;16.40;99.90;;;;;;5001654;28;20022;-76
2022/07/16 01:00:22;;;;;;;5.72;2.50;;;16.40;99.90;;;;;;4988019;28;20056;-77
2022/07/16 01:02:49;;;;;;;4.22;2.05;;;16.40;99.90;;;;;;5002170;28;20026;-77
2022/07/16 01:05:15;;;;;;;4.80;2.00;;;16.30;99.90;;;;;;5000545;28;20113;-77
2022/07/16 01:07:42;;;;;;;2.67;1.63;;;16.30;99.90;;;;;;4986232;28;20145;-76
2022/07/16 01:10:09;;;;;;;3.22;1.98;;;16.20;99.90;;;;;;4998773;28;20041;-77
2022/07/16 01:12:35;;;;;;;5.53;2.45;;;16.30;99.90;;;;;;5000141;28;20026;-76
2022/07/16 01:15:01;;;;;;;2.22;1.90;;;16.20;99.90;;;;;;5000872;28;20430;-77
2022/07/16 01:17:27;;;;;;;3.85;2.00;;;16.30;99.90;;;;;;5001766;28;20042;-76
2022/07/16 01:19:53;;;;;;;3.33;1.98;;;16.20;99.90;;;;;;4999938;28;20026;-76
2022/07/16 01:22:21;;;;;;;4.28;2.00;;;16.20;99.90;;;;;;5000945;28;20027;-76
2022/07/16 01:24:48;;;;;;;7.32;2.38;;;16.20;99.90;;;;;;5001157;28;20111;-77
2022/07/16 01:27:14;;;;;;;3.65;2.10;;;16.20;99.90;;;;;;5001474;28;20036;-77
2022/07/16 01:29:40;;;;;;;5.80;2.72;;;16.10;99.90;;;;;;5002185;28;20030;-78
2022/07/16 01:32:06;;;;;;;3.45;2.40;;;16.10;99.90;;;;;;4984689;28;20033;-77
2022/07/16 01:34:32;;;;;;;5.57;2.35;;;16.10;99.90;;;;;;4983570;28;20109;-76
2022/07/16 01:37:00;;;;;;;4.97;2.90;;;16.00;99.90;;;;;;4984231;28;20118;-77
2022/07/16 01:39:28;;;;;;;6.13;2.83;;;16.00;99.90;;;;;;5003202;28;20041;-77
2022/07/16 01:41:56;;;;;;;5.40;3.03;;;15.90;99.90;;;;;;5002943;28;20117;-77
2022/07/16 01:44:24;;;;;;;5.18;2.95;;;15.90;99.90;;;;;;4984609;28;20113;-77
2022/07/16 01:46:54;;;;;;;6.53;3.30;;;15.80;99.90;;;;;;5001769;28;20057;-77
2022/07/16 01:49:20;;;;;;;6.55;3.42;;;15.70;99.90;;;;;;4999676;28;20518;-78
2022/07/16 01:51:46;;;;;;;5.80;3.25;;;15.70;99.90;;;;;;4999381;28;20061;-77
2022/07/16 01:54:12;;;;;;;8.07;3.55;;;15.60;99.90;;;;;;5002398;28;20500;-76
2022/07/16 01:56:38;;;;;;;4.72;3.65;;;15.60;99.90;;;;;;5000860;28;20040;-77
2022/07/16 01:59:03;;;;;;;6.15;3.08;;;15.60;99.90;;;;;;5002183;28;20080;-78
2022/07/16 02:01:29;;;;;;;4.07;3.13;;;15.60;99.90;;;;;;4997223;28;20411;-77
2022/07/16 02:03:55;;;;;;;5.45;2.95;;;15.60;99.90;;;;;;5003564;28;20026;-77
2022/07/16 02:06:21;;;;;;;4.47;2.97;;;15.50;99.90;;;;;;4998783;28;20057;-77
2022/07/16 02:08:47;;;;;;;5.25;3.33;;;15.50;99.90;;;;;;4997428;28;20030;-77
2022/07/16 02:11:13;;;;;;;10.07;3.38;;;15.40;99.90;;;;;;5001474;28;20471;-79
2022/07/16 02:13:38;;;;;;;5.80;3.17;;;15.40;99.90;;;;;;4985234;28;20496;-79
2022/07/16 02:16:04;;;;;;;6.22;3.90;;;15.40;99.90;;;;;;5003138;28;20097;-79
2022/07/16 02:18:30;;;;;;;7.80;4.00;;;15.40;99.90;;;;;;5004132;28;20108;-78
2022/07/16 02:20:56;;;;;;;6.45;4.05;;;15.30;99.90;;;;;;4983352;28;20029;-76
2022/07/16 02:23:22;;;;;;;7.75;4.03;;;15.30;99.90;;;;;;5000000;28;20030;-76
2022/07/16 02:25:48;;;;;;;5.75;3.70;;;15.20;99.90;;;;;;5001205;28;20065;-76
2022/07/16 02:28:14;;;;;;;5.50;3.45;;;15.20;99.90;;;;;;5001123;28;20084;-76
2022/07/16 02:30:42;;;;;;;7.10;3.80;;;15.10;99.90;;;;;;5000976;28;20030;-76
2022/07/16 02:33:09;;;;;;;6.57;3.58;;;15.10;99.90;;;;;;4998636;28;20030;-77
2022/07/16 02:35:35;;;;;;;8.15;4.00;;;15.10;99.90;;;;;;5001044;28;20051;-79
2022/07/16 02:38:01;;;;;;;5.88;3.75;;;15.10;99.90;;;;;;5003576;28;20544;-76
2022/07/16 02:40:28;;;;;;;6.15;3.40;;;15.10;99.90;;;;;;5002816;28;20041;-78
2022/07/16 02:42:54;;;;;;;6.25;3.22;;;15.10;99.90;;;;;;5008435;28;20030;-77
2022/07/16 02:45:20;;;;;;;11.55;3.70;;;15.10;99.90;;;;;;4999027;28;20406;-77
2022/07/16 02:47:45;;;;;;;5.20;2.72;;;15.20;99.90;;;;;;4996591;28;20088;-77
2022/07/16 02:50:11;;;;;;;6.43;3.03;;;15.20;99.90;;;;;;5000634;28;20034;-77
2022/07/16 02:52:37;;;;;;;5.03;3.20;;;15.20;99.90;;;;;;5000510;28;20034;-78
2022/07/16 02:55:04;;;;;;;5.22;3.10;;;15.20;99.90;;;;;;5000274;28;20045;-77
2022/07/16 02:57:30;;;;;;;8.38;2.75;;;15.30;99.90;;;;;;4999244;28;20023;-77
2022/07/16 02:59:55;;;;;;;4.15;2.50;;;15.30;99.90;;;;;;4999319;28;20405;-76
2022/07/16 03:02:21;;;;;;;4.38;2.50;;;15.30;99.90;;;;;;4998283;28;20027;-79
2022/07/16 03:04:47;;;;;;;5.75;2.20;;;15.30;99.90;;;;;;5000927;28;20037;-77
2022/07/16 03:07:12;;;;;;;5.43;2.50;;;15.30;99.90;;;;;;4997501;28;20080;-77
2022/07/16 03:09:38;;;;;;;6.78;2.38;;;15.30;99.90;;;;;;5000843;28;20113;-76
2022/07/16 03:12:04;;;;;;;6.50;2.50;;;15.30;99.90;;;;;;4998844;28;20517;-77
2022/07/16 03:14:30;;;;;;;4.25;2.00;;;15.30;99.90;;;;;;5000474;28;20025;-76
2022/07/16 03:16:55;;;;;;;5.70;2.47;;;15.30;99.90;;;;;;5001211;28;20085;-77
2022/07/16 03:19:21;;;;;;;3.72;2.13;;;15.30;99.90;;;;;;4997977;28;20022;-75
2022/07/16 03:21:47;;;;;;;5.90;2.42;;;15.30;99.90;;;;;;5002894;28;20022;-76
2022/07/16 03:24:12;;;;;;;3.60;2.17;;;15.30;99.90;;;;;;5001882;28;20038;-76
2022/07/16 03:26:38;;;;;;;7.18;1.98;;;15.30;99.90;;;;;;5009160;28;20077;-76
2022/07/16 03:29:04;;;;;;;4.50;2.00;;;15.30;99.90;;;;;;5007862;28;20038;-76
2022/07/16 03:31:29;;;;;;;1.80;1.10;;;15.30;99.90;;;;;;5011416;28;20026;-76
2022/07/16 03:33:55;;;;;;;3.03;1.70;;;15.40;99.90;;;;;;4999822;28;20032;-75
2022/07/16 03:36:22;;;;;;;5.22;1.92;;;15.60;99.90;;;;;;4996582;28;20558;-77
2022/07/16 03:41:26;;;;;;;4.57;1.77;;;15.30;99.90;;;;;;4995204;28;20506;-77
2022/07/16 03:43:52;;;;;;;4.57;1.70;;;15.30;99.90;;;;;;4994922;28;20053;-76
2022/07/16 03:46:18;;;;;;;4.68;1.90;;;15.30;99.90;;;;;;4995459;28;20027;-77
2022/07/16 03:48:44;;;;;;;6.15;1.88;;;15.20;99.90;;;;;;4996590;28;20073;-76
2022/07/16 03:51:11;;;;;;;5.20;2.17;;;15.20;99.90;;;;;;4993778;28;20398;-77
2022/07/16 03:53:38;;;;;;;5.63;1.73;;;15.20;99.90;;;;;;4996451;28;20026;-77
2022/07/16 03:56:04;;;;;;;6.70;1.73;;;15.20;99.90;;;;;;4998885;28;20145;-76
2022/07/16 03:58:30;;;;;;;13.20;2.28;;;15.20;99.90;;;;;;4992553;28;20022;-76
2022/07/16 04:00:56;;;;;;;6.90;2.00;;;15.20;99.90;;;;;;4996586;28;20037;-76
2022/07/16 04:03:22;;;;;;;4.35;2.00;;;15.20;99.90;;;;;;4997907;28;20101;-76
2022/07/16 04:05:48;;;;;;;3.47;1.92;;;15.20;99.90;;;;;;5001218;28;20085;-76
2022/07/16 04:08:14;;;;;;;5.22;1.92;;;15.20;99.90;;;;;;5001532;28;20049;-76
2022/07/16 04:10:39;;;;;;;7.55;1.85;;;15.30;99.90;;;;;;4996519;28;20498;-77
2022/07/16 04:13:05;;;;;;;4.90;1.80;;;15.30;99.90;;;;;;4999986;28;20042;-76
2022/07/16 04:15:31;;;;;;;6.35;1.98;;;15.30;99.90;;;;;;4995290;28;20253;-76
2022/07/16 04:17:56;;;;;;;3.70;1.83;;;15.30;99.90;;;;;;4988636;28;20026;-76
2022/07/16 04:20:22;;;;;;;2.53;1.40;;;15.30;99.90;;;;;;4995971;28;20033;-76
2022/07/16 04:22:48;;;;;;;3.42;1.80;;;15.30;99.90;;;;;;5006871;28;20031;-75
2022/07/16 04:25:14;;;;;;;3.90;1.95;;;15.30;99.90;;;;;;4985166;28;20022;-76
2022/07/16 04:27:41;;;;;;;4.53;1.73;;;15.30;99.90;;;;;;5001439;28;20038;-76
2022/07/16 04:30:08;;;;;;;4.97;1.90;;;15.30;99.90;;;;;;5004140;28;20033;-76
2022/07/16 04:32:36;;;;;;;3.28;1.63;;;15.40;99.90;;;;;;5001955;28;20033;-75
2022/07/16 04:35:02;;;;;;;3.78;1.80;;;15.30;99.90;;;;;;4984381;28;20426;-75
2022/07/16 04:37:27;;;;;;;6.65;1.60;;;15.30;99.90;;;;;;4999821;28;20483;-75
2022/07/16 04:39:53;;;;;;;4.32;1.58;;;15.30;99.90;;;;;;5002068;28;20513;-76
2022/07/16 04:42:19;;;;;;;4.47;1.83;;;15.30;99.90;;;;;;5004978;28;20104;-75
2022/07/16 04:44:44;;;;;;;5.63;1.95;;;15.40;99.90;;;;;;5002246;28;20033;-75
2022/07/16 04:47:10;;;;;;;4.00;1.65;;;15.40;99.90;;;;;;4985697;28;20026;-75
2022/07/16 04:49:36;;;;;;;5.53;1.70;;;15.40;99.90;;;;;;5002054;28;20038;-76
2022/07/16 04:52:02;;;;;;;6.10;2.33;;;15.40;99.90;;;;;;5001998;28;20066;-77
2022/07/16 04:54:28;;;;;;;6.28;1.67;;;15.50;99.90;;;;;;5005805;28;20482;-76
2022/07/16 04:56:54;;;;;;;5.43;2.20;;;15.50;99.90;;;;;;5004005;28;20040;-75
2022/07/16 04:59:20;;;;;;;4.15;1.45;;;15.50;99.90;;;;;;5003809;28;20430;-76
2022/07/16 05:01:46;;;;;;;5.47;1.67;;;15.50;99.90;;;;;;5003692;28;20498;-76
2022/07/16 05:04:11;;;;;;;6.20;1.75;;;15.60;99.90;;;;;;5002618;28;20037;-76
2022/07/16 05:06:37;;;;;;;3.28;1.50;;;15.60;99.90;;;;;;5004304;28;20089;-76
2022/07/16 05:09:03;;;;;;;6.57;2.30;;;15.60;99.90;;;;;;5004014;28;20031;-77
2022/07/16 05:11:29;;;;;;;7.50;1.95;;;15.60;99.90;;;;;;5002787;28;20109;-76
2022/07/16 05:13:55;;;;;;;5.75;1.83;;;15.60;99.90;;;;;;5003336;28;20027;-76
2022/07/16 05:16:22;;;;;;;6.50;1.80;;;15.60;99.90;;;;;;5003820;28;20062;-76
2022/07/16 05:18:48;;;;;;;4.78;1.80;;;15.60;99.90;;;;;;5004120;28;20034;-76
2022/07/16 05:21:14;;;;;;;4.72;1.75;;;15.60;99.90;;;;;;5001576;28;20207;-76
2022/07/16 05:23:40;;;;;;;5.00;1.77;;;15.60;99.90;;;;;;5001843;28;20087;-77
2022/07/16 05:26:06;;;;;;;7.43;2.28;;;15.60;99.90;;;;;;5002999;28;20042;-76
2022/07/16 05:28:31;;;;;;;5.28;1.60;;;15.60;99.90;;;;;;5000642;28;20022;-76
2022/07/16 05:30:57;;;;;;;3.35;1.02;;;15.70;99.90;;;;;;5002870;28;20498;-76
2022/07/16 05:33:23;;;;;;;3.88;1.70;;;16.10;99.90;;;;;;5004500;28;20034;-76
2022/07/16 05:35:49;;;;;;;5.22;1.70;;;16.20;99.90;;;;;;4995466;28;20029;-77
2022/07/16 05:38:15;;;;;;;4.55;1.50;;;16.00;99.90;;;;;;5003607;28;20031;-77
2022/07/16 05:40:40;;;;;;;8.55;1.77;;;16.00;99.90;;;;;;5002973;28;20487;-77
2022/07/16 05:43:06;;;;;;;2.65;1.52;;;15.90;99.90;;;;;;5002243;28;20030;-76
2022/07/16 05:45:32;;;;;;;8.82;1.52;;;15.80;99.90;;;;;;5002603;28;20383;-76
2022/07/16 05:47:58;;;;;;;3.95;1.52;;;15.70;99.90;;;;;;5000646;28;20100;-77
2022/07/16 05:50:24;;;;;;;4.85;1.45;;;15.80;99.90;;;;;;5002891;28;20470;-77
2022/07/16 05:52:50;;;;;;;4.57;1.40;;;15.80;99.90;;;;;;5005088;28;20057;-76
2022/07/16 05:55:15;;;;;;;4.65;1.55;;;15.80;99.90;;;;;;4985067;28;20034;-77
2022/07/16 05:57:41;;;;;;;4.90;1.40;;;15.80;99.90;;;;;;5003500;28;20399;-77
2022/07/16 06:00:10;;;;;;;5.75;1.45;;;15.80;99.90;;;;;;5002988;28;20061;-76
2022/07/16 06:02:37;;;;;;;4.13;1.30;;;15.80;99.90;;;;;;5000300;28;20124;-76
2022/07/16 06:05:03;;;;;;;6.13;1.38;;;15.70;99.90;;;;;;5004414;28;20100;-77
2022/07/16 06:07:28;;;;;;;4.28;1.10;;;15.70;99.90;;;;;;5002735;28;20032;-76
2022/07/16 06:09:54;;;;;;;3.42;1.10;;;15.70;99.90;;;;;;4999330;28;20399;-76
2022/07/16 06:12:20;;;;;;;4.82;1.50;;;15.80;99.90;;;;;;5001740;28;20501;-76
2022/07/16 06:14:46;;;;;;;3.00;1.08;;;15.80;99.90;;;;;;5001163;28;20030;-76
2022/07/16 06:17:13;;;;;;;9.30;1.30;;;15.80;99.90;;;;;;5001730;28;20026;-76
2022/07/16 06:19:43;;;;;;;5.40;1.33;;;15.70;99.90;;;;;;5000666;28;20026;-77
2022/07/16 06:22:10;;;;;;;9.30;1.35;;;15.80;99.90;;;;;;4999393;28;20077;-76
2022/07/16 06:24:36;;;;;;;5.70;1.42;;;15.80;99.90;;;;;;5001333;28;20034;-76
2022/07/16 06:27:02;;;;;;;3.50;0.80;;;15.70;99.90;;;;;;4998937;28;20038;-76
2022/07/16 06:29:29;;;;;;;5.20;1.15;;;15.80;99.90;;;;;;5001342;28;20053;-76
2022/07/16 06:31:54;;;;;;;5.32;1.00;;;15.70;99.90;;;;;;4996579;28;20030;-76
2022/07/16 06:34:20;;;;;;;5.03;1.20;;;15.80;99.90;;;;;;4998668;28;20023;-76
2022/07/16 06:36:46;;;;;;;5.05;1.20;;;15.80;99.90;;;;;;4996433;28;20069;-77
2022/07/16 06:39:12;;;;;;;7.25;1.50;;;16.00;99.90;;;;;;4996403;28;20045;-75
2022/07/16 06:41:39;;;;;;;6.80;1.25;;;16.00;99.90;;;;;;4998562;28;20487;-76
2022/07/16 06:44:09;;;;;;;3.90;1.00;;;16.00;99.90;;;;;;5002335;28;20034;-77
2022/07/16 06:46:36;;;;;;;4.25;1.10;;;16.00;99.90;;;;;;4996757;28;20148;-77
2022/07/16 06:49:02;;;;;;;4.68;1.23;;;16.00;99.90;;;;;;4998487;28;20038;-77
2022/07/16 06:51:29;;;;;;;7.18;1.40;;;16.00;99.90;;;;;;5011324;28;20022;-77
2022/07/16 06:53:54;;;;;;;18.05;1.45;;;16.00;99.90;;;;;;4997720;28;20042;-76
2022/07/16 06:56:20;;;;;;;18.65;1.98;;;16.00;99.90;;;;;;4997665;28;20378;-77
2022/07/16 06:58:46;;;;;;;6.60;1.38;;;16.00;99.90;;;;;;4996421;28;20182;-77
2022/07/16 07:01:11;;;;;;;10.77;1.40;;;16.10;99.90;;;;;;4996733;28;20025;-76
2022/07/16 07:03:39;;;;;;;5.35;1.40;;;16.20;99.90;;;;;;4994294;28;20041;-76
2022/07/16 07:06:05;;;;;;;3.33;1.08;;;16.10;99.90;;;;;;5001214;28;20030;-77
2022/07/16 07:08:30;;;;;;;5.75;1.17;;;16.10;99.90;;;;;;4998048;28;20031;-78
2022/07/16 07:10:56;;;;;;;6.53;1.35;;;16.30;99.90;;;;;;4993686;28;20574;-76
2022/07/16 07:13:22;;;;;;;6.13;1.23;;;16.30;99.90;;;;;;4997973;28;20144;-76
2022/07/16 07:15:47;;;;;;;7.93;1.92;;;16.30;99.90;;;;;;4993936;28;20376;-77
2022/07/16 07:18:13;;;;;;;5.07;1.30;;;16.30;99.90;;;;;;4996769;28;20109;-76
2022/07/16 07:20:39;;;;;;;9.73;2.00;;;16.40;99.90;;;;;;4998346;28;20030;-77
2022/07/16 07:23:04;;;;;;;7.57;1.40;;;16.40;99.90;;;;;;4996780;28;20517;-76
2022/07/16 07:25:30;;;;;;;7.47;1.33;;;16.40;99.90;;;;;;4999832;28;20390;-77
2022/07/16 07:27:56;;;;;;;9.63;1.35;;;16.40;99.90;;;;;;4982249;28;20034;-76
2022/07/16 07:30:22;;;;;;;5.13;1.10;;;16.40;99.90;;;;;;4984537;28;20025;-76
2022/07/16 07:32:47;;;;;;;7.57;1.63;;;16.40;99.90;;;;;;4999527;28;20030;-78
2022/07/16 07:35:13;;;;;;;6.68;1.50;;;16.40;99.90;;;;;;5002729;28;20131;-78
2022/07/16 07:37:39;;;;;;;7.13;1.55;;;16.40;99.90;;;;;;5000309;28;20262;-76
2022/07/16 07:40:06;;;;;;;6.60;1.50;;;16.40;99.90;;;;;;5002960;28;20351;-77
2022/07/16 07:42:31;;;;;;;8.07;1.25;;;16.40;99.90;;;;;;5002599;28;20109;-76
2022/07/16 07:44:57;;;;;;;7.55;1.00;;;16.40;99.90;;;;;;5000723;28;20518;-76
2022/07/16 07:47:23;;;;;;;6.38;1.20;;;16.50;99.90;;;;;;5002582;28;20068;-77
2022/07/16 07:49:49;;;;;;;6.60;1.73;;;16.50;99.90;;;;;;4999760;28;20113;-76
2022/07/16 07:52:14;;;;;;;9.98;1.42;;;16.40;99.90;;;;;;4995967;28;20026;-76
2022/07/16 07:54:40;;;;;;;6.55;1.00;;;16.30;99.90;;;;;;5000423;28;20018;-77
2022/07/16 07:57:06;;;;;;;10.18;1.60;;;16.50;99.90;;;;;;4982153;28;20031;-76
2022/07/16 07:59:32;;;;;;;4.78;0.98;;;16.50;99.90;;;;;;4984441;28;20098;-76
2022/07/16 08:01:57;;;;;;;7.63;1.33;;;16.60;99.90;;;;;;5003831;28;20072;-77
2022/07/16 08:04:23;;;;;;;12.90;1.50;;;16.60;99.90;;;;;;5006075;28;20098;-76
2022/07/16 08:06:48;;;;;;;6.40;1.65;;;16.70;99.90;;;;;;5000962;28;20092;-78
2022/07/16 08:09:14;;;;;;;7.43;1.23;;;16.70;99.90;;;;;;5003371;28;20031;-79
2022/07/16 08:11:40;;;;;;;4.00;1.00;;;16.80;99.90;;;;;;5004809;28;20037;-76
2022/07/16 08:14:05;;;;;;;7.50;1.20;;;16.80;99.90;;;;;;5004426;28;20030;-78
2022/07/16 08:16:31;;;;;;;7.03;1.05;;;16.90;99.90;;;;;;5003332;28;20035;-76
2022/07/16 08:18:57;;;;;;;4.45;1.30;;;16.90;99.90;;;;;;5004076;28;20022;-76
2022/07/16 08:21:22;;;;;;;4.80;1.30;;;16.90;99.90;;;;;;5025516;28;20026;-76
2022/07/16 08:26:32;;;;;;;6.30;1.23;;;17.00;99.90;;;;;;5005389;28;20041;-77
2022/07/16 08:28:58;;;;;;;7.70;1.42;;;17.10;99.90;;;;;;5003710;28;20030;-76
2022/07/16 08:31:24;;;;;;;6.20;1.15;;;17.10;99.90;;;;;;5005296;28;20083;-76
2022/07/16 08:33:49;;;;;;;7.85;1.13;;;17.20;99.90;;;;;;5001405;28;20108;-76
2022/07/16 08:36:15;;;;;;;6.28;1.38;;;17.10;99.90;;;;;;5003218;28;20467;-77
2022/07/16 08:38:41;;;;;;;7.43;1.55;;;17.00;98.90;;;;;;5004496;28;20022;-77
2022/07/16 08:41:07;;;;;;;7.13;1.10;;;17.00;98.80;;;;;;5005903;28;20494;-76
2022/07/16 08:43:33;;;;;;;5.82;1.13;;;17.00;99.10;;;;;;4986333;28;20070;-76
2022/07/16 08:45:59;;;;;;;6.38;1.42;;;17.00;98.90;;;;;;5004864;28;20034;-76
2022/07/16 08:48:25;;;;;;;5.05;1.00;;;17.00;99.00;;;;;;5000614;28;20070;-77
2022/07/16 08:50:53;;;;;;;4.03;0.80;;;17.10;98.10;;;;;;5002839;28;20359;-77
2022/07/16 08:53:23;;;;;;;4.43;0.90;;;17.20;98.00;;;;;;5008720;28;20029;-78
2022/07/16 08:55:52;;;;;;;6.87;0.70;;;17.40;96.70;;;;;;5009611;28;20071;-77
2022/07/16 08:58:18;;;;;;;8.00;1.08;;;17.60;95.00;;;;;;4992877;28;20125;-76
2022/07/16 09:00:45;;;;;;;5.97;0.90;;;17.70;94.80;;;;;;5006496;28;20509;-76
2022/07/16 09:03:14;;;;;;;5.18;1.30;;;17.70;95.40;;;;;;5003027;28;20030;-76
2022/07/16 09:05:45;;;;;;;6.47;2.00;;;17.70;95.90;;;;;;5002936;28;20033;-76
2022/07/16 09:08:11;;;;;;;4.47;1.42;;;17.60;96.40;;;;;;5003939;28;20036;-76
2022/07/16 09:10:38;;;;;;;6.97;1.38;;;17.60;96.60;;;;;;5002070;28;20395;-76
2022/07/16 09:13:05;;;;;;;5.72;1.33;;;17.50;97.30;;;;;;5003134;28;20026;-77
2022/07/16 09:15:33;;;;;;;6.18;1.25;;;17.40;97.70;;;;;;5000836;28;20029;-76
2022/07/16 09:18:17;;;;;;;5.07;1.40;;;17.60;96.80;;;;;;4998256;28;20022;-77
2022/07/16 09:20:50;;;;;;;6.35;1.02;;;17.80;96.00;;;;;;5002887;28;20562;-75
2022/07/16 09:23:18;;;;;;;6.43;1.20;;;17.80;95.60;;;;;;5004902;28;20088;-75
2022/07/16 09:25:53;;;;;;;4.75;0.98;;;17.80;95.40;;;;;;4987732;28;20105;-76
2022/07/16 09:28:20;;;;;;;4.00;1.23;;;17.80;95.80;;;;;;5000358;28;20041;-77
2022/07/16 09:30:46;;;;;;;7.45;1.30;;;17.80;96.10;;;;;;5004053;28;20034;-77
2022/07/16 09:33:15;;;;;;;6.45;1.25;;;17.90;96.60;;;;;;5005918;28;20038;-77
2022/07/16 09:35:41;;;;;;;6.57;1.05;;;18.00;96.30;;;;;;4998909;28;20059;-77
2022/07/16 09:38:09;;;;;;;5.13;1.35;;;18.00;96.20;;;;;;4984610;28;20076;-78
2022/07/16 09:40:46;;;;;;;5.07;1.10;;;18.10;96.10;;;;;;4999227;28;20019;-77
2022/07/16 09:43:12;;;;;;;7.18;1.20;;;18.10;96.50;;;;;;5001546;28;20037;-77
2022/07/16 09:45:39;;;;;;;6.45;1.35;;;18.20;96.70;;;;;;5002781;28;20037;-77
2022/07/16 09:48:42;;;;;;;5.72;1.25;;;18.30;97.10;;;;;;5000065;28;20032;-77
2022/07/16 09:51:25;;;;;;;6.20;1.05;;;18.50;96.80;;;;;;5001854;28;20029;-76
2022/07/16 09:53:52;;;;;;;5.05;1.65;;;18.50;96.60;;;;;;5000193;28;20117;-76
2022/07/16 09:56:23;;;;;;;8.48;1.38;;;18.40;95.20;;;;;;4998428;28;20494;-76
2022/07/16 09:58:51;;;;;;;7.32;1.20;;;18.30;95.20;;;;;;5000672;28;20030;-77
2022/07/16 10:01:18;;;;;;;7.80;1.48;;;18.20;95.90;;;;;;5000227;28;20461;-77
2022/07/16 10:03:47;;;;;;;5.72;1.58;;;18.10;96.60;;;;;;5002128;28;20060;-77
2022/07/16 10:06:13;;;;;;;7.55;1.75;;;18.00;96.90;;;;;;4984398;28;20030;-78
2022/07/16 10:08:40;;;;;;;5.00;1.77;;;17.80;97.30;;;;;;5004675;28;20031;-76
2022/07/16 10:11:07;;;;;;;7.85;1.55;;;17.80;97.90;;;;;;5002756;28;20034;-77
2022/07/16 10:13:34;;;;;;;8.30;1.70;;;17.80;98.40;;;;;;5002703;28;20497;-77
2022/07/16 10:16:01;;;;;;;5.45;1.02;;;17.60;99.50;;;;;;5001236;28;20022;-77
2022/07/16 10:18:31;;;;;;;8.57;1.65;;;17.60;99.90;;;;;;5000024;28;20041;-76
2022/07/16 10:21:08;;;;;;;9.38;2.40;;;17.70;99.90;;;;;;5000759;28;20030;-76
2022/07/16 10:23:36;;;;;;;4.38;1.10;;;17.80;99.70;;;;;;5000708;28;20037;-77
2022/07/16 10:26:28;;;;;;;8.55;1.60;;;17.70;98.70;;;;;;5000068;28;20088;-76
2022/07/16 10:28:55;;;;;;;6.13;1.25;;;17.80;98.70;;;;;;5000604;28;20045;-77
2022/07/16 10:31:34;;;;;;;7.85;1.42;;;17.70;98.60;;;;;;5004100;28;20056;-76
2022/07/16 10:34:15;;;;;;;5.45;1.17;;;17.90;98.50;;;;;;4998700;28;20109;-76
2022/07/16 10:36:52;;;;;;;11.35;2.38;;;18.20;98.00;;;;;;5001732;28;20049;-76
2022/07/16 10:39:20;;;;;;;8.82;1.42;;;18.40;96.80;;;;;;5002523;28;20034;-76
2022/07/16 10:42:16;;;;;;;11.40;1.65;;;18.40;96.80;;;;;;5015183;28;20026;-77
2022/07/16 10:44:43;;;;;;;9.10;1.80;;;18.40;97.00;;;;;;4998013;28;20038;-76
2022/07/16 10:47:09;;;;;;;6.65;1.83;;;18.30;97.20;;;;;;5001872;28;20026;-77
2022/07/16 10:49:36;;;;;;;7.20;1.55;;;18.40;96.50;;;;;;5002441;28;20030;-77
2022/07/16 10:52:08;;;;;;;6.68;1.38;;;18.50;96.40;;;;;;5001577;28;20033;-77
2022/07/16 10:54:39;;;;;;;5.03;1.23;;;18.60;97.00;;;;;;5001262;28;20438;-77
2022/07/16 10:57:08;;;;;;;5.90;1.58;;;18.70;95.70;;;;;;5000778;28;20387;-77
2022/07/16 10:59:39;;;;;;;6.47;1.75;;;18.70;96.10;;;;;;4986223;28;20026;-77
2022/07/16 11:02:07;;;;;;;5.90;1.30;;;18.80;95.60;;;;;;5001984;28;20033;-77
2022/07/16 11:04:36;;;;;;;454.15;371.58;;;18.80;96.20;;;;;;4996414;28;20092;-77
2022/07/16 11:07:07;;;;;;;58.88;31.48;;;19.00;96.00;;;;;;5002672;28;20037;-77
2022/07/16 11:09:34;;;;;;;89.68;61.63;;;19.00;94.30;;;;;;4996651;28;20033;-77
2022/07/16 11:12:18;;;;;;;9.93;4.53;;;19.00;92.90;;;;;;4996654;28;20108;-78
2022/07/16 11:14:46;;;;;;;12.50;2.33;;;19.00;93.30;;;;;;4999934;28;20065;-76
2022/07/16 11:17:14;;;;;;;5.35;1.20;;;19.00;92.30;;;;;;4997096;28;20420;-76
2022/07/16 11:19:52;;;;;;;3.20;1.25;;;19.00;92.90;;;;;;5000221;28;20026;-76
2022/07/16 11:22:21;;;;;;;4.47;1.50;;;19.20;91.60;;;;;;4999125;28;20564;-77
2022/07/16 11:24:52;;;;;;;4.97;1.17;;;19.80;91.60;;;;;;4998526;28;20432;-76
2022/07/16 11:27:18;;;;;;;5.65;1.40;;;20.40;90.30;;;;;;5000180;28;20521;-77
2022/07/16 11:29:44;;;;;;;5.40;1.45;;;20.40;87.80;;;;;;4999719;28;20027;-77
2022/07/16 11:32:15;;;;;;;9.25;1.30;;;20.70;87.10;;;;;;4999785;28;20117;-77
2022/07/16 11:34:41;;;;;;;;;;;21.20;84.00;;;;;;5004185;28;20087;-77
2022/07/16 11:37:07;;;;;;;4.57;1.25;;;21.10;83.60;;;;;;5002609;28;20358;-78
2022/07/16 11:39:33;;;;;;;8.95;1.90;;;21.10;83.20;;;;;;5002986;28;20052;-77
2022/07/16 11:41:59;;;;;;;5.28;1.17;;;21.50;82.20;;;;;;4986912;28;20041;-77
2022/07/16 11:44:43;;;;;;;4.43;1.77;;;22.60;78.70;;;;;;5005297;28;20027;-79
2022/07/16 11:47:10;;;;;;;6.65;1.25;;;24.00;72.60;;;;;;5003197;28;20038;-78
2022/07/16 11:49:44;;;;;;;5.43;1.13;;;24.30;67.20;;;;;;5002522;28;20030;-77
2022/07/16 11:52:14;;;;;;;5.18;1.40;;;23.40;64.30;;;;;;5003002;28;20397;-77
2022/07/16 11:54:41;;;;;;;6.10;1.23;;;22.30;67.00;;;;;;5003013;28;20096;-78
2022/07/16 11:57:09;;;;;;;3.63;0.88;;;21.70;71.10;;;;;;5004546;28;20050;-78
2022/07/16 11:59:39;;;;;;;6.80;1.30;;;22.40;68.80;;;;;;4987264;28;20030;-78
2022/07/16 12:02:08;;;;;;;3.90;1.00;;;22.70;67.90;;;;;;4987865;28;20117;-77
2022/07/16 12:04:51;;;;;;;4.88;1.25;;;22.50;68.30;;;;;;5001755;28;20370;-77
2022/07/16 12:07:30;;;;;;;7.15;1.10;;;21.80;69.40;;;;;;5003631;28;20056;-76
2022/07/16 12:10:01;;;;;;;3.28;1.17;;;21.10;71.10;;;;;;5003679;28;20034;-76
2022/07/16 12:12:29;;;;;;;5.50;1.70;;;20.60;71.10;;;;;;5002114;28;20040;-76
2022/07/16 12:15:00;;;;;;;4.47;1.17;;;20.30;71.00;;;;;;5002962;28;20030;-76
2022/07/16 12:17:36;;;;;;;5.20;1.10;;;20.40;70.40;;;;;;5000615;28;20517;-76
2022/07/16 12:20:19;;;;;;;6.47;1.00;;;20.60;70.70;;;;;;5001599;28;20025;-78
2022/07/16 12:23:05;;;;;;;7.53;1.17;;;20.60;71.40;;;;;;5002967;28;20027;-77
2022/07/16 12:25:31;;;;;;;7.00;1.23;;;20.30;72.20;;;;;;5000088;28;20053;-77
2022/07/16 12:28:02;;;;;;;4.43;1.25;;;20.00;73.40;;;;;;5002378;28;20042;-77
2022/07/16 12:30:30;;;;;;;3.67;1.20;;;19.90;75.30;;;;;;5004308;28;20030;-78
2022/07/16 12:32:56;;;;;;;4.90;1.20;;;19.80;75.60;;;;;;5001860;28;20125;-77
2022/07/16 12:35:55;;;;;;;6.13;1.60;;;20.00;77.40;;;;;;5002220;28;20029;-76
2022/07/16 12:38:59;;;;;;;4.25;1.00;;;20.90;76.50;;;;;;5003230;28;20521;-77
2022/07/16 12:41:41;;;;;;;8.07;1.60;;;21.80;73.10;;;;;;5003776;28;20509;-76
2022/07/16 12:44:12;;;;;;;3.10;1.05;;;21.40;73.80;;;;;;5003525;28;20026;-76
2022/07/16 12:46:41;;;;;;;8.63;1.50;;;20.80;73.70;;;;;;5002849;28;20998;-76
2022/07/16 12:49:16;;;;;;;5.47;1.13;;;20.30;74.50;;;;;;5025671;28;20034;-78
2022/07/16 12:51:51;;;;;;;9.07;1.10;;;20.20;75.80;;;;;;5000623;28;20065;-77
2022/07/16 12:54:18;;;;;;;5.07;1.20;;;20.40;76.30;;;;;;5004261;28;20447;-77
2022/07/16 12:59:30;;;;;;;7.47;1.52;;;21.30;70.50;;;;;;5003933;28;20036;-78